KAFN/AFN METAR and TAF weather

Enter ICAO airport designator
Station Type Date Time Source
KAFN METAR 2020/05/30 05:23 UTC NOAA

KAFN 300523Z AUTO 20007KT 10SM -RA SCT014 BKN080 20/17 A2985 RMK AO2 RAB15 P0000 T02000172


Station Type Date Time Source
KAFN Decoded METAR 2020/05/30 05:23 UTC NOAA

JAFFREY MUNI-SILVER RANCH, NH, United States (KAFN) 42-48N 72-00W 313M
May 30, 2020 - 01:23 AM EDT / 2020.05.30 0523 UTC
Wind: from the SSW (200 degrees) at 8 MPH (7 KT):0
Visibility: 10 mile(s):0
Sky conditions: mostly cloudy
Weather: light rain
Precipitation last hour: A trace
Temperature: 68.0 F (20.0 C)
Dew Point: 63.0 F (17.2 C)
Relative Humidity: 83%
Pressure (altimeter): 29.85 in. Hg (1010 hPa)
ob: KAFN 300523Z AUTO 20007KT 10SM -RA SCT014 BKN080 20/17 A2985 RMK AO2 RAB15 P0000 T02000172
cycle: 5

Station Type Date Time Source
KAFN TAF UTC NOAA

Error!

Example: see airport list